Aktualna pogoda na lotniskach (dane METAR)

 

EPGD - Gdansk/Rebiechow, Poland
Distance from station: ENE 44km
Updated: Fri, 17-Aug-2018 22:00 CEST
Clear
Clear
 Wind from varies
Wiatr: varies 2 km/h
Temperatura: 19°C
Punkt Rosy: 16°C
Wilgotność: 83%
Ciśnienie: 1016 hPa
Ogólnie: Clear
Widzialność: greater than 10 km
2018/08/17 20:00 EPGD 172000Z VRB01KT CAVOK 19/16 Q1016
EPSC - Szczecin/Golenio, Poland
Distance from station: WSW 205km
Updated: Fri, 17-Aug-2018 22:00 CEST
Clear
Clear
 Wind from NNW
Wiatr: NNW 17 km/h
Temperatura: 20°C
Punkt Rosy: 16°C
Wilgotność: 78%
Ciśnienie: 1016 hPa
Ogólnie: Clear
Widzialność: greater than 10 km
2018/08/17 20:00 EPSC 172000Z 33009KT CAVOK 20/16 Q1016
 
EPPO - Poznan/Lawica, Poland
Distance from station: SSW 210km
Updated: Fri, 17-Aug-2018 22:00 CEST
Clear
Clear
 Wind from ENE
Wiatr: ENE 4 km/h
Temperatura: 20°C
Punkt Rosy: 14°C
Wilgotność: 69%
Ciśnienie: 1015 hPa
Ogólnie: Clear
Widzialność: greater than 10 km
2018/08/17 20:00 EPPO 172000Z 07002KT CAVOK 20/14 Q1015
EPLL - Lodz/Lublinek, Poland
Distance from station: SSE 296km
Updated: Fri, 17-Aug-2018 22:00 CEST
Clear
Clear
 Wind from E
Wiatr: E 7 km/h
Temperatura: 21°C
Punkt Rosy: 16°C
Wilgotność: 73%
Ciśnienie: 1016 hPa
Ogólnie: Clear
Widzialność: greater than 10 km
2018/08/17 20:00 EPLL 172000Z 10004KT 070V130 CAVOK 21/16 Q1016
 
EPWA - Warsaw/Okecie, Poland
Distance from station: SE 307km
Updated: Fri, 17-Aug-2018 22:00 CEST
Clear
Clear
 Wind from SE
Wiatr: SE 7 km/h
Temperatura: 21°C
Punkt Rosy: 15°C
Wilgotność: 69%
Ciśnienie: 1017 hPa
Ogólnie: Clear
Widzialność: greater than 10 km
2018/08/17 20:00 EPWA 172000Z 13004KT CAVOK 21/15 Q1017 NOSIG
EPWR - Wroclaw/Strachow, Poland
Distance from station: S 352km
Updated: Fri, 17-Aug-2018 22:00 CEST
Clear
Clear
 Wind from varies
Wiatr: varies 2 km/h
Temperatura: 21°C
Punkt Rosy: 13°C
Wilgotność: 60%
Ciśnienie: 1015 hPa
Ogólnie: Clear
Widzialność: greater than 10 km
2018/08/17 20:00 EPWR 172000Z VRB01KT CAVOK 21/13 Q1015

Metar display script from Saratoga-Weather.org